Terminal Aerodrome Forecast
Issued by NWS Columbia, SC

Home | Current Version | Previous Version | Text Only | Print | Product List | Glossary On
Versions: 1 2 3 4 5 6 7 8 9 10 11 12 13 14 15 16 17 18 19 20 21 22 23 24 25 26 27 28 29 30 31 32 33 34 35
000
FTUS42 KCAE 272000 AAA
TAFCAE
TAF AMD
KCAE 272049Z 2721/2818 35010KT P6SM OVC018
     FM272300 35008KT P6SM VCSH OVC025
      TEMPO 2802/2805 6SM -SHRA
     FM280700 33008KT P6SM BKN050
     FM281000 32008KT P6SM SCT250=

USA.gov is the U.S. government's official web portal to all federal, state and local government web resources and services.